Главная страница
METAR-TAF:

METAR-TAF

Аэропорты :

Киркенес, Норвегия

широта: 69-44N, долгота: 029-54E, высота над уровнем моря: 9 м

Текущие метеонаблюдения

Эта сводка был подготовлена 29 минут назад, в 08:50 UTC
Ветер 15 Узел от южный
Температура -14°C
Влажность 78%
Давление 1008 hPa
Видимость 10 км и более
Нет облачности ниже 1500 м, и нет кучево-дождевой облачности

METAR: ENKR 170850Z 19015KT CAVOK M14/M17 Q1008 RMK WIND 731FT 20025KT

Время: 10:19 (09:19 UTC)

Прогноз

Эта сводка был подготовлена 1 час и 19 минут назад, в 08:00 UTC
Прогноз действительный с 17-го 09 UTC до 17-го 18 UTC
Ветер 15 Узел от южный
Видимость 10 км и более
небольшая облачность на высоте 2000 фута

TAF: ENKR 170800Z 1709/1718 19015KT 9999 FEW020

Метеонаблюдения и прогнозы для более 4000 аэропортов (сводки METAR и TAF).

Имеющиеся станции представлены на карте желтыми и красными точками.

Чтобы увидеть название станции, наведите на нее мышь.

Затем щелкните, чтобы увидеть метеонаблюдения и метеопрогнозы.

Управление картой: чтобы увеличить масштаб, щелкните зеленые кнопки с черным крестиком; чтобы уменьшить масштаб, щелкните зеленую кнопку с тире; для просмотра соседних карт щелкайте зеленые стрелки.


METAR-TAF: